Current | Forecast
Updated: 10:00 AM JST on October 18, 2017
Observed at Ishigakijima, Japan
Temperature 82°F
Humidity 89%
Dew Point 79°F
Wind NE at 12 mph
Pressure 29.86 in (Steady)
Conditions Mostly Cloudy
Visibility 6.2 miles
UV 4 out of 16
Clouds (FEW) : 900 ft
Mostly Cloudy (BKN) : 4500 ft
Yesterday's Maximum 86°F
Yesterday's Minimum 77°F approx.
Yesterday's Cooling Degree Days 17 approx.
Sunrise6:44 AM JST
Sunset6:16 PM JST
Moon Rise5:04 AM JST
Moon Set5:32 PM JST
Moon PhaseMoon Phase
Waning Crescent
Raw METARMETAR ROIG 180100Z 04010KT 9999 VCSH FEW009 BKN045 28/26 Q1011


Monday
. High: 82° F.
Tuesday
. High: 80° F.
Wednesday
. High: 80° F.
Thursday
. High: 82° F.
Friday
. High: 84° F.
Saturday
. High: 84° F.
Sunday
. High: 84° F.
Monday
. High: 84° F.

Units: English | Metric

Find the Weather for any City, State or Zipcode, or Country:

U.S. State List | Severe Weather | Tropical Storms | Ski Conditions
United States | Canada | Central America | South America | Asia | Europe | Australia | Africa | Islands

Weather Underground

© Copyright 2017
The Weather Company, LLC